Time;durP1;ratioP1;P1;durP2;ratioP2;P2;SDS_P1;SDS_P2;PMS_P1;PMS_P2;Temp;Humidity;BMP_temperature;BMP_pressure;BME280_temperature;BME280_humidity;BME280_pressure;Samples;Min_cycle;Max_cycle;Signal;HPM_P1;HPM_P2
2022/12/18 00:01:26;;;;;;;38.42;18.48;;;;;;;;;;6245624;23;20030;-64
2022/12/18 00:03:53;;;;;;;41.47;18.25;;;;;;;;;;6245956;22;20008;-64
2022/12/18 00:06:20;;;;;;;40.40;20.08;;;;;;;;;;6245700;23;20327;-64
2022/12/18 00:08:46;;;;;;;41.67;19.05;;;;;;;;;;6245939;23;20011;-64
2022/12/18 00:11:14;;;;;;;40.33;17.83;;;;;;;;;;6245998;23;20359;-64
2022/12/18 00:13:40;;;;;;;42.83;17.55;;;;;;;;;;6244584;23;20047;-64
2022/12/18 00:16:10;;;;;;;40.30;18.85;;;;;;;;;;6244704;23;20004;-64
2022/12/18 00:18:36;;;;;;;39.38;18.42;;;;;;;;;;6245059;23;20473;-64
2022/12/18 00:21:04;;;;;;;43.45;18.90;;;;;;;;;;6244925;23;20083;-64
2022/12/18 00:23:30;;;;;;;46.58;22.52;;;;;;;;;;6245196;23;20027;-64
2022/12/18 00:26:00;;;;;;;40.53;19.83;;;;;;;;;;6245826;23;20007;-65
2022/12/18 00:28:26;;;;;;;42.75;19.40;;;;;;;;;;6244565;23;20343;-65
2022/12/18 00:31:00;;;;;;;39.83;17.48;;;;;;;;;;6245974;23;20436;-65
2022/12/18 00:33:26;;;;;;;43.85;18.88;;;;;;;;;;6245512;23;20004;-65
2022/12/18 00:35:52;;;;;;;38.08;19.10;;;;;;;;;;6244043;23;20008;-65
2022/12/18 00:38:18;;;;;;;37.72;19.65;;;;;;;;;;6244014;23;20081;-65
2022/12/18 00:40:44;;;;;;;39.30;19.13;;;;;;;;;;6245359;23;20453;-65
2022/12/18 00:43:12;;;;;;;41.20;19.08;;;;;;;;;;6245483;22;20146;-65
2022/12/18 00:45:38;;;;;;;39.83;18.35;;;;;;;;;;6245372;23;20342;-65
2022/12/18 00:48:04;;;;;;;44.65;19.40;;;;;;;;;;6244001;23;20000;-65
2022/12/18 00:50:30;;;;;;;43.15;18.73;;;;;;;;;;6243867;23;20011;-65
2022/12/18 00:52:57;;;;;;;37.85;18.30;;;;;;;;;;6243993;23;20339;-64
2022/12/18 00:55:23;;;;;;;39.47;17.50;;;;;;;;;;6245440;23;20007;-65
2022/12/18 00:57:51;;;;;;;38.53;17.95;;;;;;;;;;6244817;23;20004;-64
2022/12/18 01:00:17;;;;;;;39.75;18.55;;;;;;;;;;6245600;22;20020;-64
2022/12/18 01:02:44;;;;;;;40.20;19.23;;;;;;;;;;6245071;23;20011;-64
2022/12/18 01:05:11;;;;;;;41.90;18.63;;;;;;;;;;6243604;23;20000;-64
2022/12/18 01:07:37;;;;;;;41.00;19.30;;;;;;;;;;6244902;23;20005;-65
2022/12/18 01:10:04;;;;;;;42.90;18.23;;;;;;;;;;6243688;23;20031;-65
2022/12/18 01:12:31;;;;;;;36.95;18.10;;;;;;;;;;6244729;23;20032;-65
2022/12/18 01:14:57;;;;;;;39.92;19.70;;;;;;;;;;6245076;23;20430;-64
2022/12/18 01:17:23;;;;;;;43.08;18.92;;;;;;;;;;6244975;23;20012;-64
2022/12/18 01:19:49;;;;;;;40.10;19.73;;;;;;;;;;6244864;23;20004;-64
2022/12/18 01:22:15;;;;;;;41.60;18.27;;;;;;;;;;6243582;23;20015;-64
2022/12/18 01:24:41;;;;;;;40.78;18.75;;;;;;;;;;6244877;23;20431;-65
2022/12/18 01:27:07;;;;;;;42.40;19.73;;;;;;;;;;6244757;23;20019;-65
2022/12/18 01:29:33;;;;;;;47.25;19.73;;;;;;;;;;6243417;23;20006;-65
2022/12/18 01:32:00;;;;;;;46.78;20.45;;;;;;;;;;6244650;23;20004;-65
2022/12/18 01:34:26;;;;;;;42.00;18.45;;;;;;;;;;6245141;23;20505;-64
2022/12/18 01:36:52;;;;;;;38.95;18.98;;;;;;;;;;6244696;23;20346;-64
2022/12/18 01:39:18;;;;;;;40.75;20.65;;;;;;;;;;6245102;23;20004;-64
2022/12/18 01:42:06;;;;;;;43.95;20.10;;;;;;;;;;6244289;23;20015;-64
2022/12/18 01:44:50;;;;;;;43.97;19.33;;;;;;;;;;6244684;23;20004;-65
2022/12/18 01:47:19;;;;;;;38.55;18.63;;;;;;;;;;6245220;23;20449;-64
2022/12/18 01:49:45;;;;;;;42.80;20.33;;;;;;;;;;6244750;23;20023;-64
2022/12/18 01:52:11;;;;;;;39.47;20.00;;;;;;;;;;6244887;23;20004;-64
2022/12/18 01:54:37;;;;;;;49.78;19.60;;;;;;;;;;6244232;23;20011;-64
2022/12/18 01:57:03;;;;;;;43.70;19.88;;;;;;;;;;6242974;23;20523;-64
2022/12/18 01:59:31;;;;;;;48.10;21.10;;;;;;;;;;6243345;23;20004;-64
2022/12/18 02:01:58;;;;;;;39.95;19.58;;;;;;;;;;6244645;23;20004;-65
2022/12/18 02:04:26;;;;;;;42.05;19.77;;;;;;;;;;6244855;23;20042;-65
2022/12/18 02:07:04;;;;;;;40.65;19.58;;;;;;;;;;6242698;23;20385;-65
2022/12/18 02:09:37;;;;;;;42.42;19.30;;;;;;;;;;6242760;23;20446;-65
2022/12/18 02:12:04;;;;;;;44.08;19.23;;;;;;;;;;6243108;23;20008;-64
2022/12/18 02:14:35;;;;;;;44.20;20.63;;;;;;;;;;6243014;23;20411;-64
2022/12/18 02:17:12;;;;;;;43.88;18.63;;;;;;;;;;6242713;23;20075;-64
2022/12/18 02:19:47;;;;;;;44.22;21.05;;;;;;;;;;6244426;22;20079;-64
2022/12/18 02:22:13;;;;;;;43.88;19.30;;;;;;;;;;6242931;23;20004;-64
2022/12/18 02:24:48;;;;;;;45.33;19.50;;;;;;;;;;6242829;23;20392;-65
2022/12/18 02:27:15;;;;;;;43.22;20.50;;;;;;;;;;6244779;22;20351;-65
2022/12/18 02:29:44;;;;;;;42.30;19.23;;;;;;;;;;6244651;23;20003;-65
2022/12/18 02:32:14;;;;;;;43.00;20.10;;;;;;;;;;6244679;23;20004;-64
2022/12/18 02:34:40;;;;;;;46.22;20.02;;;;;;;;;;6244821;23;20090;-64
2022/12/18 02:37:13;;;;;;;41.03;20.05;;;;;;;;;;6242857;23;20015;-64
2022/12/18 02:39:41;;;;;;;44.88;20.83;;;;;;;;;;6242696;23;20019;-64
2022/12/18 02:42:11;;;;;;;40.25;19.67;;;;;;;;;;6242966;23;20027;-64
2022/12/18 02:45:03;;;;;;;47.80;20.20;;;;;;;;;;6244593;23;20011;-64
2022/12/18 02:47:31;;;;;;;41.60;20.10;;;;;;;;;;6237088;23;20007;-64
2022/12/18 02:50:00;;;;;;;39.22;19.05;;;;;;;;;;6244338;23;20043;-65
2022/12/18 02:52:33;;;;;;;45.60;19.58;;;;;;;;;;6245640;23;20004;-64
2022/12/18 02:55:02;;;;;;;40.40;19.90;;;;;;;;;;6246199;23;20008;-64
2022/12/18 02:57:36;;;;;;;39.70;19.05;;;;;;;;;;6246236;23;20004;-64
2022/12/18 03:00:08;;;;;;;41.97;20.50;;;;;;;;;;6246236;23;20094;-64
2022/12/18 03:02:43;;;;;;;43.42;19.98;;;;;;;;;;6246438;23;20047;-64
2022/12/18 03:05:10;;;;;;;39.70;19.55;;;;;;;;;;6245935;23;20386;-64
2022/12/18 03:07:42;;;;;;;41.00;19.40;;;;;;;;;;6245702;23;20083;-64
2022/12/18 03:10:13;;;;;;;43.05;20.30;;;;;;;;;;6246115;23;20008;-64
2022/12/18 03:12:43;;;;;;;38.88;18.42;;;;;;;;;;6246136;23;20019;-64
2022/12/18 03:15:19;;;;;;;45.13;20.05;;;;;;;;;;6246393;23;20008;-64
2022/12/18 03:17:53;;;;;;;44.17;20.63;;;;;;;;;;6246222;23;20039;-64
2022/12/18 03:20:20;;;;;;;42.10;20.23;;;;;;;;;;6247573;23;20005;-64
2022/12/18 03:22:49;;;;;;;43.17;18.45;;;;;;;;;;6245763;23;20051;-65
2022/12/18 03:25:17;;;;;;;42.88;19.88;;;;;;;;;;6246163;23;20031;-65
2022/12/18 03:27:46;;;;;;;45.45;20.65;;;;;;;;;;6246289;23;20012;-65
2022/12/18 03:30:15;;;;;;;42.05;18.60;;;;;;;;;;6245927;23;20000;-64
2022/12/18 03:33:00;;;;;;;43.60;20.52;;;;;;;;;;6246170;23;20015;-64
2022/12/18 03:35:32;;;;;;;46.25;20.20;;;;;;;;;;6245934;23;20446;-64
2022/12/18 03:37:58;;;;;;;43.33;18.80;;;;;;;;;;6245986;23;20062;-65
2022/12/18 03:40:29;;;;;;;46.90;21.15;;;;;;;;;;6246107;23;20008;-65
2022/12/18 03:43:19;;;;;;;48.40;20.20;;;;;;;;;;6245863;23;20390;-65
2022/12/18 03:45:53;;;;;;;46.13;22.35;;;;;;;;;;6125189;23;20005;-65
2022/12/18 03:48:28;;;;;;;45.15;19.05;;;;;;;;;;6100688;23;20093;-65
2022/12/18 03:50:54;;;;;;;43.83;20.38;;;;;;;;;;6100439;23;20106;-64
2022/12/18 03:53:28;;;;;;;39.33;18.65;;;;;;;;;;6100530;23;20014;-64
2022/12/18 03:55:55;;;;;;;44.90;20.20;;;;;;;;;;6101018;23;20071;-64
2022/12/18 03:58:24;;;;;;;41.97;21.52;;;;;;;;;;6100017;23;20006;-64
2022/12/18 04:01:00;;;;;;;44.95;21.17;;;;;;;;;;6100726;23;20496;-64
2022/12/18 04:03:28;;;;;;;46.55;20.75;;;;;;;;;;6124303;23;20006;-64
2022/12/18 04:05:57;;;;;;;45.10;19.85;;;;;;;;;;6099004;23;20002;-65
2022/12/18 04:08:24;;;;;;;51.97;21.65;;;;;;;;;;6123186;23;20013;-65
2022/12/18 04:11:00;;;;;;;47.78;20.65;;;;;;;;;;6098934;23;20033;-65
2022/12/18 04:13:32;;;;;;;49.85;21.17;;;;;;;;;;6098450;23;20014;-64
2022/12/18 04:16:01;;;;;;;48.10;20.63;;;;;;;;;;6098969;23;20388;-64
2022/12/18 04:18:27;;;;;;;43.53;21.10;;;;;;;;;;6099150;23;20006;-64
2022/12/18 04:20:54;;;;;;;46.20;20.73;;;;;;;;;;6098657;23;20067;-65
2022/12/18 04:23:20;;;;;;;44.25;19.95;;;;;;;;;;6216825;23;20000;-65
2022/12/18 04:25:47;;;;;;;58.90;21.17;;;;;;;;;;6244036;23;20000;-65
2022/12/18 04:28:20;;;;;;;47.30;21.48;;;;;;;;;;6244080;23;20005;-65
2022/12/18 04:30:46;;;;;;;50.83;20.42;;;;;;;;;;6245949;22;20004;-65
2022/12/18 04:33:13;;;;;;;50.15;21.13;;;;;;;;;;6244010;23;20008;-65
2022/12/18 04:35:42;;;;;;;52.60;21.88;;;;;;;;;;6243772;23;20000;-65
2022/12/18 04:38:09;;;;;;;45.85;20.42;;;;;;;;;;6245728;23;19996;-65
2022/12/18 04:40:37;;;;;;;46.25;19.65;;;;;;;;;;6245733;22;20004;-65
2022/12/18 04:43:10;;;;;;;44.05;21.58;;;;;;;;;;6245677;22;20084;-65
2022/12/18 04:45:36;;;;;;;43.38;19.88;;;;;;;;;;6245546;23;20031;-65
2022/12/18 04:48:03;;;;;;;43.42;19.58;;;;;;;;;;6245489;23;20000;-65
2022/12/18 04:50:29;;;;;;;43.00;20.08;;;;;;;;;;6245561;23;20080;-65
2022/12/18 04:52:56;;;;;;;41.60;19.85;;;;;;;;;;6245437;23;20000;-65
2022/12/18 04:55:22;;;;;;;43.83;20.35;;;;;;;;;;6245422;23;20435;-65
2022/12/18 04:57:48;;;;;;;39.03;18.70;;;;;;;;;;6245653;23;20004;-65
2022/12/18 05:00:14;;;;;;;41.55;18.38;;;;;;;;;;6245387;23;20042;-65
2022/12/18 05:02:40;;;;;;;42.17;19.88;;;;;;;;;;6245131;23;20083;-65
2022/12/18 05:05:07;;;;;;;39.47;19.00;;;;;;;;;;6245124;23;20016;-65
2022/12/18 05:07:33;;;;;;;37.85;17.83;;;;;;;;;;6245226;23;19996;-65
2022/12/18 05:09:59;;;;;;;42.72;18.10;;;;;;;;;;6245119;23;20000;-65
2022/12/18 05:12:25;;;;;;;40.30;19.00;;;;;;;;;;6245504;23;20342;-65
2022/12/18 05:14:51;;;;;;;36.42;17.58;;;;;;;;;;6244915;23;20091;-65
2022/12/18 05:17:17;;;;;;;41.90;19.20;;;;;;;;;;6244896;23;20323;-65
2022/12/18 05:19:44;;;;;;;42.60;18.83;;;;;;;;;;6245288;23;20012;-65
2022/12/18 05:22:10;;;;;;;47.33;18.60;;;;;;;;;;6245324;23;20073;-65
2022/12/18 05:24:36;;;;;;;39.75;17.25;;;;;;;;;;6245251;23;20008;-65
2022/12/18 05:27:02;;;;;;;42.33;18.05;;;;;;;;;;6245306;23;20439;-65
2022/12/18 05:29:28;;;;;;;42.63;17.98;;;;;;;;;;6244786;23;20342;-65
2022/12/18 05:31:55;;;;;;;36.63;18.45;;;;;;;;;;6244960;23;20434;-65
2022/12/18 05:34:21;;;;;;;43.08;18.42;;;;;;;;;;6244973;23;20015;-65
2022/12/18 05:36:47;;;;;;;36.47;18.27;;;;;;;;;;6245164;23;20444;-65
2022/12/18 05:39:13;;;;;;;35.53;17.08;;;;;;;;;;6244996;23;20012;-65
2022/12/18 05:41:39;;;;;;;31.65;16.30;;;;;;;;;;6244788;23;20008;-64
2022/12/18 05:44:05;;;;;;;38.97;17.38;;;;;;;;;;6245176;23;20517;-64
2022/12/18 05:46:32;;;;;;;36.35;16.17;;;;;;;;;;6244384;23;20050;-64
2022/12/18 05:49:00;;;;;;;34.60;16.73;;;;;;;;;;6245090;23;20004;-64
2022/12/18 05:51:27;;;;;;;41.47;15.95;;;;;;;;;;6244441;22;20047;-64
2022/12/18 05:53:53;;;;;;;37.22;16.83;;;;;;;;;;6245026;23;20087;-64
2022/12/18 05:56:20;;;;;;;35.53;17.13;;;;;;;;;;6244447;23;20024;-64
2022/12/18 05:58:47;;;;;;;35.22;17.15;;;;;;;;;;6245059;23;20335;-64
2022/12/18 06:01:14;;;;;;;35.72;15.82;;;;;;;;;;6244415;23;20533;-64
2022/12/18 06:03:40;;;;;;;34.58;15.68;;;;;;;;;;6244663;23;20004;-64
2022/12/18 06:06:14;;;;;;;30.48;15.73;;;;;;;;;;6244662;23;20005;-64
2022/12/18 06:08:40;;;;;;;35.13;16.05;;;;;;;;;;6244863;22;20007;-64
2022/12/18 06:11:06;;;;;;;29.77;15.63;;;;;;;;;;6245028;22;20011;-64
2022/12/18 06:13:32;;;;;;;32.55;15.38;;;;;;;;;;6245004;23;20020;-64
2022/12/18 06:15:58;;;;;;;31.48;15.70;;;;;;;;;;6244012;23;20004;-64
2022/12/18 06:18:25;;;;;;;29.58;15.75;;;;;;;;;;6244650;23;20004;-64
2022/12/18 06:21:00;;;;;;;35.85;15.43;;;;;;;;;;6245170;23;20079;-64
2022/12/18 06:23:26;;;;;;;32.47;16.15;;;;;;;;;;6245125;23;20000;-65
2022/12/18 06:25:53;;;;;;;32.45;14.98;;;;;;;;;;6244886;23;20461;-65
2022/12/18 06:28:19;;;;;;;28.85;13.65;;;;;;;;;;6245349;23;20004;-65
2022/12/18 06:30:46;;;;;;;30.35;14.88;;;;;;;;;;6244632;23;19996;-65
2022/12/18 06:33:12;;;;;;;28.88;15.25;;;;;;;;;;6245675;23;20510;-65
2022/12/18 06:35:38;;;;;;;28.85;13.82;;;;;;;;;;6244551;23;20028;-65
2022/12/18 06:38:04;;;;;;;29.10;14.13;;;;;;;;;;6244875;23;20008;-65
2022/12/18 06:40:30;;;;;;;28.05;13.73;;;;;;;;;;6244614;23;20375;-65
2022/12/18 06:42:56;;;;;;;35.60;15.85;;;;;;;;;;6244639;23;20011;-65
2022/12/18 06:45:22;;;;;;;27.67;14.90;;;;;;;;;;6244675;23;20007;-65
2022/12/18 06:47:49;;;;;;;32.25;14.52;;;;;;;;;;6244976;23;20005;-65
2022/12/18 06:50:15;;;;;;;27.95;13.57;;;;;;;;;;6245220;23;20004;-65
2022/12/18 06:52:42;;;;;;;30.33;15.02;;;;;;;;;;6245369;23;20004;-65
2022/12/18 06:55:08;;;;;;;32.35;14.88;;;;;;;;;;6245398;22;20008;-65
2022/12/18 06:57:35;;;;;;;32.08;14.60;;;;;;;;;;6244511;22;20008;-65
2022/12/18 07:00:01;;;;;;;23.17;12.27;;;;;;;;;;6244795;23;20032;-65
2022/12/18 07:02:27;;;;;;;24.33;12.50;;;;;;;;;;6245161;23;20008;-65
2022/12/18 07:04:53;;;;;;;26.25;12.82;;;;;;;;;;6245315;23;20003;-65
2022/12/18 07:07:19;;;;;;;42.00;17.55;;;;;;;;;;6245341;23;20015;-65
2022/12/18 07:09:45;;;;;;;46.05;20.92;;;;;;;;;;6244902;23;20011;-65
2022/12/18 07:12:11;;;;;;;39.03;19.85;;;;;;;;;;6245088;23;20032;-65
2022/12/18 07:14:37;;;;;;;34.60;16.02;;;;;;;;;;6244493;23;20020;-65
2022/12/18 07:17:03;;;;;;;32.13;17.88;;;;;;;;;;6245042;23;20008;-65
2022/12/18 07:19:30;;;;;;;34.03;16.50;;;;;;;;;;6245146;23;20464;-65
2022/12/18 07:21:56;;;;;;;33.05;17.17;;;;;;;;;;6244671;23;20008;-65
2022/12/18 07:24:22;;;;;;;29.70;16.30;;;;;;;;;;6245295;23;20402;-65
2022/12/18 07:26:48;;;;;;;31.88;15.93;;;;;;;;;;6242601;23;20346;-65
2022/12/18 07:29:14;;;;;;;31.38;16.80;;;;;;;;;;6244373;23;20024;-65
2022/12/18 07:31:40;;;;;;;29.85;15.35;;;;;;;;;;6244512;23;20437;-65
2022/12/18 07:34:10;;;;;;;20.55;12.45;;;;;;;;;;6243875;23;20008;-64
2022/12/18 07:36:36;;;;;;;29.02;19.90;;;;;;;;;;6243760;23;20008;-65
2022/12/18 07:39:02;;;;;;;22.30;12.95;;;;;;;;;;6244706;23;20523;-65
2022/12/18 07:41:28;;;;;;;25.00;13.88;;;;;;;;;;6245943;23;20011;-65
2022/12/18 07:43:54;;;;;;;22.83;11.38;;;;;;;;;;6244126;23;20350;-65
2022/12/18 07:46:21;;;;;;;15.63;10.70;;;;;;;;;;6245790;23;20369;-65
2022/12/18 07:48:47;;;;;;;16.63;9.35;;;;;;;;;;6245698;23;20000;-65
2022/12/18 07:51:13;;;;;;;18.88;9.15;;;;;;;;;;6246056;22;20012;-65
2022/12/18 07:53:40;;;;;;;18.80;8.73;;;;;;;;;;6245281;23;20000;-65
2022/12/18 07:56:07;;;;;;;15.55;8.90;;;;;;;;;;6245885;23;20347;-66
2022/12/18 07:58:34;;;;;;;18.77;8.27;;;;;;;;;;6245413;23;20004;-66
2022/12/18 08:01:07;;;;;;;17.17;10.63;;;;;;;;;;6244937;23;20004;-66
2022/12/18 08:03:33;;;;;;;17.80;9.25;;;;;;;;;;6245508;23;20031;-66
2022/12/18 08:06:03;;;;;;;19.75;9.75;;;;;;;;;;6245117;23;20012;-66
2022/12/18 08:08:29;;;;;;;15.50;8.07;;;;;;;;;;6245717;23;20043;-66
2022/12/18 08:10:56;;;;;;;15.48;9.07;;;;;;;;;;6245335;22;20438;-66
2022/12/18 08:13:22;;;;;;;14.18;7.95;;;;;;;;;;6244453;23;20020;-66
2022/12/18 08:15:58;;;;;;;18.60;9.80;;;;;;;;;;6245421;23;20035;-65
2022/12/18 08:18:25;;;;;;;11.20;7.28;;;;;;;;;;6245483;23;20066;-64
2022/12/18 08:20:51;;;;;;;11.15;6.65;;;;;;;;;;6245494;22;20004;-64
2022/12/18 08:23:17;;;;;;;10.45;6.25;;;;;;;;;;6245136;23;20049;-65
2022/12/18 08:25:43;;;;;;;14.23;6.97;;;;;;;;;;6244772;23;20119;-65
2022/12/18 08:28:10;;;;;;;12.05;6.70;;;;;;;;;;6245169;23;20011;-65
2022/12/18 08:30:36;;;;;;;17.23;7.82;;;;;;;;;;6245481;23;20001;-65
2022/12/18 08:33:02;;;;;;;10.85;6.55;;;;;;;;;;6245324;23;20058;-65
2022/12/18 08:35:28;;;;;;;12.75;5.97;;;;;;;;;;6245715;23;20000;-65
2022/12/18 08:37:54;;;;;;;9.50;5.95;;;;;;;;;;6245548;23;20000;-65
2022/12/18 08:40:20;;;;;;;11.40;7.18;;;;;;;;;;6245318;23;20024;-65
2022/12/18 08:45:31;;;;;;;23.45;14.82;;;;;;;;;;6245387;23;20042;-65
2022/12/18 08:47:58;;;;;;;11.85;7.03;;;;;;;;;;6245494;23;20004;-65
2022/12/18 08:50:24;;;;;;;12.07;6.60;;;;;;;;;;6245155;23;20012;-65
2022/12/18 08:52:50;;;;;;;14.95;7.60;;;;;;;;;;6245419;23;20004;-65
2022/12/18 08:55:16;;;;;;;13.45;8.43;;;;;;;;;;6245299;23;20469;-65
2022/12/18 08:57:42;;;;;;;11.20;7.72;;;;;;;;;;6245478;23;20004;-65
2022/12/18 09:00:08;;;;;;;11.35;6.68;;;;;;;;;;6245339;23;20083;-65
2022/12/18 09:02:35;;;;;;;22.67;14.18;;;;;;;;;;6244867;23;20004;-65
2022/12/18 09:05:01;;;;;;;16.30;9.55;;;;;;;;;;6244746;23;20008;-65
2022/12/18 09:07:27;;;;;;;15.52;7.97;;;;;;;;;;6245409;23;20059;-65
2022/12/18 09:09:53;;;;;;;11.13;7.30;;;;;;;;;;6244643;23;20091;-65
2022/12/18 09:12:19;;;;;;;16.15;8.35;;;;;;;;;;6245033;23;20027;-65
2022/12/18 09:14:45;;;;;;;14.95;7.65;;;;;;;;;;6243763;23;20019;-65
2022/12/18 09:17:11;;;;;;;13.02;8.52;;;;;;;;;;6244044;23;20008;-65
2022/12/18 09:19:37;;;;;;;13.35;6.88;;;;;;;;;;6244368;22;20473;-65
2022/12/18 09:22:03;;;;;;;14.45;8.82;;;;;;;;;;6244223;23;20050;-65
2022/12/18 09:24:30;;;;;;;18.52;9.48;;;;;;;;;;6244277;23;20346;-65
2022/12/18 09:26:56;;;;;;;18.50;10.90;;;;;;;;;;6244446;23;19996;-65
2022/12/18 09:29:22;;;;;;;21.48;10.32;;;;;;;;;;6244806;23;20054;-65
2022/12/18 09:31:49;;;;;;;12.60;6.63;;;;;;;;;;6244511;23;20004;-65
2022/12/18 09:34:16;;;;;;;11.18;7.38;;;;;;;;;;6244352;22;20008;-65
2022/12/18 09:36:42;;;;;;;15.50;9.25;;;;;;;;;;6242779;23;20012;-65
2022/12/18 09:39:08;;;;;;;12.40;7.00;;;;;;;;;;6243827;23;20386;-65
2022/12/18 09:41:53;;;;;;;12.40;7.70;;;;;;;;;;6243985;23;20004;-65
2022/12/18 09:44:30;;;;;;;12.27;7.55;;;;;;;;;;6244355;23;20460;-65
2022/12/18 09:47:12;;;;;;;12.07;7.20;;;;;;;;;;6244253;23;20000;-65
2022/12/18 09:49:50;;;;;;;13.52;7.93;;;;;;;;;;6243830;23;20042;-65
2022/12/18 09:52:19;;;;;;;15.77;8.57;;;;;;;;;;6244293;23;20062;-65
2022/12/18 09:54:49;;;;;;;11.27;6.25;;;;;;;;;;6242457;23;20004;-65
2022/12/18 09:57:20;;;;;;;11.07;5.05;;;;;;;;;;6244105;23;20012;-65
2022/12/18 09:59:54;;;;;;;8.32;4.70;;;;;;;;;;6244085;23;20529;-65
2022/12/18 10:02:22;;;;;;;7.03;4.85;;;;;;;;;;6243872;23;20047;-65
2022/12/18 10:04:55;;;;;;;7.60;4.25;;;;;;;;;;6244266;23;19996;-65
2022/12/18 10:07:29;;;;;;;10.23;4.38;;;;;;;;;;6241537;23;20004;-65
2022/12/18 10:09:58;;;;;;;6.45;4.05;;;;;;;;;;6243525;23;20524;-65
2022/12/18 10:12:31;;;;;;;12.95;7.05;;;;;;;;;;6243105;23;20024;-65
2022/12/18 10:15:20;;;;;;;10.15;5.95;;;;;;;;;;6243240;22;20012;-66
2022/12/18 10:17:51;;;;;;;8.50;4.63;;;;;;;;;;6243447;22;20016;-66
2022/12/18 10:20:17;;;;;;;9.60;6.05;;;;;;;;;;6243281;23;20442;-66
2022/12/18 10:22:46;;;;;;;11.43;5.60;;;;;;;;;;6242904;23;20016;-66
2022/12/18 10:25:26;;;;;;;15.23;8.05;;;;;;;;;;6243418;23;20011;-66
2022/12/18 10:27:58;;;;;;;9.55;5.13;;;;;;;;;;6241929;23;20008;-66
2022/12/18 10:30:25;;;;;;;9.32;5.50;;;;;;;;;;6242371;23;20012;-66
2022/12/18 10:32:51;;;;;;;21.88;8.73;;;;;;;;;;6242100;23;20004;-66
2022/12/18 10:35:22;;;;;;;8.50;5.18;;;;;;;;;;6241310;23;20087;-66
2022/12/18 10:38:06;;;;;;;12.02;5.22;;;;;;;;;;6242113;23;20476;-66
2022/12/18 10:40:32;;;;;;;10.75;5.57;;;;;;;;;;6242072;23;20506;-66
2022/12/18 10:43:18;;;;;;;13.60;5.68;;;;;;;;;;6242358;23;20028;-66
2022/12/18 10:45:58;;;;;;;9.15;4.95;;;;;;;;;;6241192;23;20005;-66
2022/12/18 10:48:24;;;;;;;9.00;5.05;;;;;;;;;;6242450;23;20413;-66
2022/12/18 10:50:51;;;;;;;8.68;4.88;;;;;;;;;;6242335;23;20079;-66
2022/12/18 10:53:22;;;;;;;9.50;4.32;;;;;;;;;;6242286;23;20001;-66
2022/12/18 10:55:49;;;;;;;6.10;4.47;;;;;;;;;;6241869;23;20000;-65
2022/12/18 10:58:24;;;;;;;6.70;3.90;;;;;;;;;;6241471;23;20004;-65
2022/12/18 11:01:10;;;;;;;7.82;4.32;;;;;;;;;;6242362;23;20074;-65
2022/12/18 11:03:57;;;;;;;8.70;4.97;;;;;;;;;;6241164;23;20028;-65
2022/12/18 11:06:24;;;;;;;8.75;4.40;;;;;;;;;;6240773;23;20015;-65
2022/12/18 11:09:00;;;;;;;7.10;3.85;;;;;;;;;;6241410;23;19996;-66
2022/12/18 11:11:26;;;;;;;7.07;3.85;;;;;;;;;;6241025;22;20004;-66
2022/12/18 11:14:13;;;;;;;7.75;4.93;;;;;;;;;;6243051;23;20049;-66
2022/12/18 11:16:47;;;;;;;6.25;3.95;;;;;;;;;;6242930;23;20354;-66
2022/12/18 11:19:13;;;;;;;6.40;4.05;;;;;;;;;;6242254;23;20458;-66
2022/12/18 11:21:41;;;;;;;7.38;4.07;;;;;;;;;;6243636;23;20008;-66
2022/12/18 11:24:16;;;;;;;7.93;3.70;;;;;;;;;;6243430;22;20062;-66
2022/12/18 11:26:43;;;;;;;5.40;3.28;;;;;;;;;;6244055;23;20004;-66
2022/12/18 11:29:10;;;;;;;6.65;3.58;;;;;;;;;;6244221;22;20438;-66
2022/12/18 11:31:37;;;;;;;5.18;3.40;;;;;;;;;;6242613;23;20464;-66
2022/12/18 11:34:11;;;;;;;6.03;3.50;;;;;;;;;;6242781;22;20107;-66
2022/12/18 11:36:45;;;;;;;5.20;3.30;;;;;;;;;;6244156;23;20008;-66
2022/12/18 11:39:35;;;;;;;4.63;2.90;;;;;;;;;;6244163;23;20469;-66
2022/12/18 11:42:12;;;;;;;5.05;3.45;;;;;;;;;;6229128;23;20035;-66
2022/12/18 11:44:48;;;;;;;5.57;2.95;;;;;;;;;;6244066;23;20000;-68
2022/12/18 11:47:19;;;;;;;6.30;2.90;;;;;;;;;;6244609;23;20000;-66
2022/12/18 11:49:48;;;;;;;5.22;2.90;;;;;;;;;;6243849;23;20057;-66
2022/12/18 11:52:17;;;;;;;5.90;3.00;;;;;;;;;;6243607;22;20000;-65
2022/12/18 11:54:43;;;;;;;4.50;2.70;;;;;;;;;;6243801;23;20019;-65
2022/12/18 11:57:21;;;;;;;4.43;2.80;;;;;;;;;;6244554;23;20027;-65
2022/12/18 11:59:47;;;;;;;4.22;2.63;;;;;;;;;;6244041;23;20102;-65
2022/12/18 12:02:25;;;;;;;5.90;3.15;;;;;;;;;;6243381;23;20007;-65
2022/12/18 12:05:21;;;;;;;4.47;2.72;;;;;;;;;;6244383;23;20000;-65
2022/12/18 12:07:57;;;;;;;4.30;2.50;;;;;;;;;;6219798;22;20347;-66
2022/12/18 12:10:29;;;;;;;4.13;2.53;;;;;;;;;;6245457;23;20012;-66
2022/12/18 12:13:01;;;;;;;3.50;2.23;;;;;;;;;;6244872;23;20012;-66
2022/12/18 12:15:30;;;;;;;4.53;2.35;;;;;;;;;;6245446;23;20015;-66
2022/12/18 12:18:02;;;;;;;3.00;2.15;;;;;;;;;;6244831;23;20082;-66
2022/12/18 12:20:31;;;;;;;4.05;2.22;;;;;;;;;;6244805;23;20019;-66
2022/12/18 12:22:57;;;;;;;4.47;2.20;;;;;;;;;;6243944;23;20007;-66
2022/12/18 12:25:34;;;;;;;3.05;2.05;;;;;;;;;;6243529;23;20394;-65
2022/12/18 12:28:00;;;;;;;3.88;2.40;;;;;;;;;;6244074;23;20004;-65
2022/12/18 12:30:29;;;;;;;6.18;2.45;;;;;;;;;;6243213;23;20006;-65
2022/12/18 12:33:20;;;;;;;2.75;2.05;;;;;;;;;;6243605;23;20083;-65
2022/12/18 12:36:08;;;;;;;6.97;2.17;;;;;;;;;;6244143;23;20008;-65
2022/12/18 12:38:46;;;;;;;3.45;1.50;;;;;;;;;;6244100;23;20430;-66
2022/12/18 12:44:05;;;;;;;3.95;1.55;;;;;;;;;;6244040;23;20004;-66
2022/12/18 12:46:33;;;;;;;5.43;2.17;;;;;;;;;;6242723;23;20003;-66
2022/12/18 12:49:01;;;;;;;2.92;1.98;;;;;;;;;;6244201;23;20020;-66
2022/12/18 12:51:39;;;;;;;6.13;2.25;;;;;;;;;;6245006;23;20004;-66
2022/12/18 12:54:06;;;;;;;2.15;1.77;;;;;;;;;;6243814;23;20004;-66
2022/12/18 12:56:40;;;;;;;2.20;1.70;;;;;;;;;;6243946;23;20018;-66
2022/12/18 12:59:12;;;;;;;4.32;2.20;;;;;;;;;;6243265;23;20004;-66
2022/12/18 13:01:49;;;;;;;4.60;2.17;;;;;;;;;;6243403;23;20020;-66
2022/12/18 13:04:24;;;;;;;4.88;2.30;;;;;;;;;;6243586;22;20315;-66
2022/12/18 13:06:54;;;;;;;3.45;1.90;;;;;;;;;;6243247;23;20079;-66
2022/12/18 13:09:20;;;;;;;5.95;1.90;;;;;;;;;;6242145;22;20079;-66
2022/12/18 13:14:34;;;;;;;3.17;2.05;;;;;;;;;;6243268;23;20012;-66
2022/12/18 13:17:18;;;;;;;4.57;2.15;;;;;;;;;;6243009;23;20383;-66
2022/12/18 13:19:45;;;;;;;3.80;2.22;;;;;;;;;;6243752;23;20011;-66
2022/12/18 13:22:24;;;;;;;3.13;2.20;;;;;;;;;;6243322;23;20438;-66
2022/12/18 13:24:51;;;;;;;3.80;2.08;;;;;;;;;;6243400;23;20134;-66
2022/12/18 13:27:36;;;;;;;3.17;1.88;;;;;;;;;;6243317;23;20496;-66
2022/12/18 13:30:02;;;;;;;5.72;1.75;;;;;;;;;;6242939;23;20031;-66
2022/12/18 13:32:28;;;;;;;4.15;2.20;;;;;;;;;;6244465;22;20424;-66
2022/12/18 13:35:21;;;;;;;4.82;2.40;;;;;;;;;;6244008;23;20016;-66
2022/12/18 13:37:56;;;;;;;8.40;2.17;;;;;;;;;;6120773;23;20022;-66
2022/12/18 13:40:47;;;;;;;3.05;1.88;;;;;;;;;;6121241;23;20024;-66
2022/12/18 13:43:20;;;;;;;5.35;2.53;;;;;;;;;;6111534;23;20045;-66
2022/12/18 13:46:06;;;;;;;3.22;2.40;;;;;;;;;;6120662;23;20094;-66
2022/12/18 13:48:34;;;;;;;5.35;2.42;;;;;;;;;;6118613;23;20426;-65
2022/12/18 13:51:08;;;;;;;6.43;2.63;;;;;;;;;;6117543;23;20085;-66
2022/12/18 13:53:43;;;;;;;6.63;2.50;;;;;;;;;;6120641;23;20042;-66
2022/12/18 13:56:10;;;;;;;4.55;2.45;;;;;;;;;;6095551;23;20014;-66
2022/12/18 13:58:36;;;;;;;5.32;2.60;;;;;;;;;;6121056;23;20006;-66
2022/12/18 14:01:04;;;;;;;5.05;2.33;;;;;;;;;;6119023;23;20018;-66
2022/12/18 14:03:31;;;;;;;5.72;2.50;;;;;;;;;;6094744;23;20009;-66
2022/12/18 14:06:02;;;;;;;5.43;1.83;;;;;;;;;;6118501;23;20401;-66
2022/12/18 14:08:33;;;;;;;5.00;2.10;;;;;;;;;;6119440;23;20010;-66
2022/12/18 14:11:00;;;;;;;5.50;2.40;;;;;;;;;;6070891;23;20009;-66
2022/12/18 14:13:33;;;;;;;9.07;2.25;;;;;;;;;;6123134;23;20014;-66
2022/12/18 14:16:03;;;;;;;5.18;2.50;;;;;;;;;;6240816;23;20008;-66
2022/12/18 14:19:08;;;;;;;4.80;2.47;;;;;;;;;;6241978;23;20000;-66
2022/12/18 14:21:37;;;;;;;3.22;1.92;;;;;;;;;;6119104;23;20065;-66
2022/12/18 14:24:05;;;;;;;2.40;1.67;;;;;;;;;;6117240;23;20141;-66
2022/12/18 14:26:33;;;;;;;3.60;1.75;;;;;;;;;;6093548;23;20010;-66
2022/12/18 14:29:18;;;;;;;4.55;1.63;;;;;;;;;;6094479;23;20006;-66
2022/12/18 14:31:44;;;;;;;3.10;1.95;;;;;;;;;;6117804;23;20017;-66
2022/12/18 14:34:17;;;;;;;5.72;2.05;;;;;;;;;;6094444;23;20006;-66
2022/12/18 14:36:52;;;;;;;5.88;2.03;;;;;;;;;;6120123;23;20139;-66
2022/12/18 14:39:22;;;;;;;8.10;2.22;;;;;;;;;;6118676;23;20014;-66
2022/12/18 14:41:49;;;;;;;3.90;2.55;;;;;;;;;;6120342;23;20010;-66
2022/12/18 14:44:16;;;;;;;6.05;2.10;;;;;;;;;;6119724;23;20030;-66
2022/12/18 14:46:47;;;;;;;7.72;1.83;;;;;;;;;;6120060;23;20045;-67
2022/12/18 14:49:23;;;;;;;4.35;2.05;;;;;;;;;;6119960;23;20442;-67